createdAt,value
2023-03-12T00:00:08.453Z,7.46
2023-03-12T00:02:37.917Z,7.44
2023-03-12T00:05:06.993Z,7.41
2023-03-12T00:07:36.647Z,7.38
2023-03-12T00:10:06.717Z,7.35
2023-03-12T00:12:36.393Z,7.31
2023-03-12T00:15:05.211Z,7.26
2023-03-12T00:17:33.495Z,7.21
2023-03-12T00:20:01.764Z,7.16
2023-03-12T00:22:30.327Z,7.14
2023-03-12T00:24:58.521Z,7.11
2023-03-12T00:27:26.718Z,7.07
2023-03-12T00:29:54.871Z,7.03
2023-03-12T00:32:27.380Z,7.00
2023-03-12T00:34:55.689Z,6.97
2023-03-12T00:37:23.933Z,6.95
2023-03-12T00:39:52.930Z,6.91
2023-03-12T00:42:21.058Z,6.89
2023-03-12T00:44:49.110Z,6.86
2023-03-12T00:47:17.218Z,6.83
2023-03-12T00:49:45.241Z,6.81
2023-03-12T00:52:13.351Z,6.78
2023-03-12T00:54:41.472Z,6.76
2023-03-12T00:57:10.868Z,6.75
2023-03-12T00:59:40.590Z,6.72
2023-03-12T01:02:09.055Z,6.69
2023-03-12T01:04:38.291Z,6.65
2023-03-12T01:07:06.820Z,6.62
2023-03-12T01:09:35.275Z,6.60
2023-03-12T01:12:04.480Z,6.56
2023-03-12T01:14:33.580Z,6.53
2023-03-12T01:17:01.631Z,6.49
2023-03-12T01:19:29.917Z,6.44
2023-03-12T01:21:57.973Z,6.41
2023-03-12T01:24:26.064Z,6.37
2023-03-12T01:26:54.119Z,6.34
2023-03-12T01:29:22.284Z,6.31
2023-03-12T01:31:50.669Z,6.25
2023-03-12T01:34:18.817Z,6.19
2023-03-12T01:36:47.855Z,6.14
2023-03-12T01:39:16.125Z,6.08
2023-03-12T01:41:44.159Z,6.01
2023-03-12T01:44:14.155Z,5.95
2023-03-12T01:46:43.404Z,5.88
2023-03-12T01:49:30.555Z,5.82
2023-03-12T01:52:07.549Z,5.73
2023-03-12T01:55:06.931Z,5.64
2023-03-12T01:57:58.426Z,5.53
2023-03-12T02:00:27.120Z,5.42
2023-03-12T02:03:01.315Z,5.34
2023-03-12T02:05:48.391Z,5.27
2023-03-12T02:08:17.514Z,5.21
2023-03-12T02:10:46.739Z,5.12
2023-03-12T02:13:16.272Z,5.03
2023-03-12T02:15:46.272Z,4.96
2023-03-12T02:18:18.420Z,4.87
2023-03-12T02:20:53.360Z,4.78
2023-03-12T02:23:43.032Z,4.71
2023-03-12T02:26:11.488Z,4.67
2023-03-12T02:28:44.107Z,4.65
2023-03-12T02:31:20.738Z,4.62
2023-03-12T02:33:48.880Z,4.59
2023-03-12T02:36:16.929Z,4.55
2023-03-12T02:38:46.988Z,4.52
2023-03-12T02:41:25.046Z,4.50
2023-03-12T02:43:58.123Z,4.50
2023-03-12T02:46:27.276Z,4.49
2023-03-12T02:48:58.590Z,4.45
2023-03-12T02:51:26.750Z,4.41
2023-03-12T02:53:55.226Z,4.36
2023-03-12T02:56:27.046Z,4.28
2023-03-12T02:58:55.230Z,4.21
2023-03-12T03:01:24.054Z,4.11
2023-03-12T03:03:55.060Z,4.01
2023-03-12T03:06:24.112Z,3.94
2023-03-12T03:08:54.142Z,3.89
2023-03-12T03:11:24.840Z,3.85
2023-03-12T03:13:55.918Z,3.83
2023-03-12T03:16:24.468Z,3.77
2023-03-12T03:18:54.418Z,3.69
2023-03-12T03:21:22.931Z,3.63
2023-03-12T03:23:53.269Z,3.59
2023-03-12T03:26:22.344Z,3.55
2023-03-12T03:28:50.852Z,3.51
2023-03-12T03:31:19.122Z,3.47
2023-03-12T03:33:47.995Z,3.42
2023-03-12T03:36:16.644Z,3.36
2023-03-12T03:38:51.558Z,3.32
2023-03-12T03:41:20.263Z,3.32
2023-03-12T03:43:49.973Z,3.32
2023-03-12T03:46:19.587Z,3.30
2023-03-12T03:48:51.163Z,3.27
2023-03-12T03:51:20.239Z,3.26
2023-03-12T03:53:50.578Z,3.24
2023-03-12T03:56:19.984Z,3.21
2023-03-12T03:58:52.070Z,3.13
2023-03-12T04:01:21.009Z,2.98
2023-03-12T04:03:49.551Z,2.77
2023-03-12T04:06:20.175Z,2.61
2023-03-12T04:08:50.091Z,2.54
2023-03-12T04:11:19.809Z,2.48
2023-03-12T04:13:48.447Z,2.42
2023-03-12T04:16:20.662Z,2.34
2023-03-12T04:18:50.322Z,2.27
2023-03-12T04:21:19.090Z,2.15
2023-03-12T04:23:48.299Z,2.02
2023-03-12T04:26:17.634Z,1.93
2023-03-12T04:28:48.513Z,1.86
2023-03-12T04:31:16.766Z,1.79
2023-03-12T04:33:51.317Z,1.74
2023-03-12T04:36:20.876Z,1.70
2023-03-12T04:38:50.779Z,1.65
2023-03-12T04:41:21.621Z,1.62
2023-03-12T04:43:53.988Z,1.57
2023-03-12T04:46:22.914Z,1.51
2023-03-12T04:48:51.149Z,1.45
2023-03-12T04:51:20.390Z,1.43
2023-03-12T04:53:49.703Z,1.40
2023-03-12T04:56:18.185Z,1.35
2023-03-12T04:58:47.294Z,1.34
2023-03-12T05:01:24.917Z,1.30
2023-03-12T05:03:56.143Z,1.25
2023-03-12T05:06:26.710Z,1.25
2023-03-12T05:08:55.086Z,1.23
2023-03-12T05:11:24.440Z,1.21
2023-03-12T05:13:52.824Z,1.18
2023-03-12T05:16:21.344Z,1.15
2023-03-12T05:18:54.154Z,1.14
2023-03-12T05:21:23.140Z,1.13
2023-03-12T05:23:57.639Z,1.14
2023-03-12T05:26:33.542Z,1.15
2023-03-12T05:29:17.030Z,1.16
2023-03-12T05:31:47.276Z,1.20
2023-03-12T05:34:18.695Z,1.24
2023-03-12T05:36:48.949Z,1.23
2023-03-12T05:39:21.320Z,1.17
2023-03-12T05:42:03.138Z,1.15
2023-03-12T05:44:39.173Z,1.15
2023-03-12T05:47:36.257Z,1.17
2023-03-12T05:50:22.414Z,1.17
2023-03-12T05:52:51.179Z,1.14
2023-03-12T05:55:23.789Z,1.14
2023-03-12T05:58:05.707Z,1.14
2023-03-12T06:00:47.367Z,1.12
2023-03-12T06:03:27.312Z,1.11
2023-03-12T06:06:00.700Z,1.07
2023-03-12T06:08:36.839Z,1.06
2023-03-12T06:11:07.941Z,1.04
2023-03-12T06:13:47.256Z,1.05
2023-03-12T06:16:26.929Z,1.05
2023-03-12T06:21:49.681Z,1.01
2023-03-12T06:24:24.322Z,1.00
2023-03-12T06:27:03.582Z,0.99
2023-03-12T06:29:35.977Z,1.02
2023-03-12T06:35:11.408Z,1.09
2023-03-12T06:37:44.968Z,1.07
2023-03-12T06:40:21.014Z,1.07
2023-03-12T06:42:52.924Z,1.09
2023-03-12T06:45:26.806Z,1.09
2023-03-12T06:47:56.076Z,1.07
2023-03-12T06:50:26.475Z,1.07
2023-03-12T06:53:03.522Z,1.12
2023-03-12T06:58:19.662Z,1.10
2023-03-12T07:00:57.595Z,1.10
2023-03-12T07:03:31.310Z,1.10
2023-03-12T07:06:16.327Z,1.07
2023-03-12T07:08:57.806Z,1.06
2023-03-12T07:11:27.956Z,1.05
2023-03-12T07:14:00.174Z,1.04
2023-03-12T07:16:31.700Z,1.02
2023-03-12T07:19:04.064Z,0.97
2023-03-12T07:21:32.616Z,0.94
2023-03-12T07:24:07.964Z,0.95
2023-03-12T07:26:37.513Z,1.01
2023-03-12T07:29:05.591Z,1.06
2023-03-12T07:31:35.771Z,1.16
2023-03-12T07:34:06.395Z,1.24
2023-03-12T07:36:36.609Z,1.32
2023-03-12T07:39:06.206Z,1.36
2023-03-12T07:41:37.411Z,1.35
2023-03-12T07:44:05.610Z,1.35
2023-03-12T07:46:34.621Z,1.41
2023-03-12T07:49:02.844Z,1.41
2023-03-12T07:51:31.299Z,1.39
2023-03-12T07:53:59.432Z,1.36
2023-03-12T07:56:27.666Z,1.34
2023-03-12T07:58:55.849Z,1.39
2023-03-12T08:01:25.598Z,1.52
2023-03-12T08:03:54.006Z,1.60
2023-03-12T08:06:25.793Z,1.67
2023-03-12T08:08:56.637Z,1.72
2023-03-12T08:11:25.244Z,1.80
2023-03-12T08:13:56.631Z,1.91
2023-03-12T08:16:24.762Z,1.98
2023-03-12T08:18:54.086Z,2.04
2023-03-12T08:21:22.336Z,2.04
2023-03-12T08:23:50.622Z,2.08
2023-03-12T08:26:26.295Z,2.10
2023-03-12T08:28:54.635Z,2.09
2023-03-12T08:31:22.793Z,2.03
2023-03-12T08:33:51.352Z,2.01
2023-03-12T08:36:21.996Z,1.98
2023-03-12T08:38:52.434Z,1.96
2023-03-12T08:41:23.747Z,1.97
2023-03-12T08:43:54.949Z,1.98
2023-03-12T08:46:23.238Z,2.01
2023-03-12T08:48:52.040Z,2.01
2023-03-12T08:51:26.054Z,2.01
2023-03-12T08:53:54.335Z,2.04
2023-03-12T08:56:27.151Z,2.12
2023-03-12T08:58:55.270Z,2.18
2023-03-12T09:01:23.490Z,2.28
2023-03-12T09:03:54.229Z,2.44
2023-03-12T09:06:22.671Z,2.58
2023-03-12T09:08:57.826Z,2.67
2023-03-12T09:11:27.661Z,2.73
2023-03-12T09:14:33.559Z,2.82
2023-03-12T09:16:46.856Z,2.96
2023-03-12T09:19:15.796Z,3.10
2023-03-12T09:21:46.898Z,3.21
2023-03-12T09:24:15.099Z,3.26
2023-03-12T09:26:43.401Z,3.24
2023-03-12T09:29:12.781Z,3.19
2023-03-12T09:31:41.786Z,3.20
2023-03-12T09:34:13.529Z,3.25
2023-03-12T09:36:42.633Z,3.33
2023-03-12T09:39:10.653Z,3.40
2023-03-12T09:41:42.506Z,3.50
2023-03-12T09:44:22.931Z,3.61
2023-03-12T09:46:56.192Z,3.73
2023-03-12T09:49:45.530Z,3.75
2023-03-12T09:52:34.664Z,3.66
2023-03-12T09:55:22.670Z,3.53
2023-03-12T09:57:52.019Z,3.40
2023-03-12T10:00:21.676Z,3.37
2023-03-12T10:02:56.084Z,3.38
2023-03-12T10:05:47.791Z,3.46
2023-03-12T10:08:28.501Z,3.60
2023-03-12T10:11:43.242Z,3.76
2023-03-12T10:14:23.006Z,3.89
2023-03-12T10:16:54.470Z,3.87
2023-03-12T10:19:32.535Z,3.85
2023-03-12T10:22:08.789Z,3.79
2023-03-12T10:24:58.643Z,3.76
2023-03-12T10:27:28.969Z,3.76
2023-03-12T10:29:57.403Z,3.74
2023-03-12T10:32:27.842Z,3.69
2023-03-12T10:35:02.484Z,3.65
2023-03-12T10:37:39.370Z,3.66
2023-03-12T10:40:15.044Z,3.63
2023-03-12T10:42:43.264Z,3.56
2023-03-12T10:45:11.563Z,3.53
2023-03-12T10:47:41.169Z,3.53
2023-03-12T10:50:23.738Z,3.53
2023-03-12T10:52:53.772Z,3.50
2023-03-12T10:55:24.768Z,3.50
2023-03-12T10:57:53.467Z,3.54
2023-03-12T11:00:22.714Z,3.59
2023-03-12T11:02:58.875Z,3.61
2023-03-12T11:05:29.860Z,3.63
2023-03-12T11:08:01.883Z,3.68
2023-03-12T11:10:33.353Z,3.76
2023-03-12T11:13:21.096Z,3.85
2023-03-12T11:15:51.194Z,3.91
2023-03-12T11:18:33.723Z,3.98
2023-03-12T11:21:08.913Z,4.04
2023-03-12T11:24:07.552Z,4.05
2023-03-12T11:26:52.776Z,3.97
2023-03-12T11:29:24.450Z,3.89
2023-03-12T11:32:09.170Z,3.83
2023-03-12T11:34:39.134Z,3.82
2023-03-12T11:37:40.520Z,3.88
2023-03-12T11:40:12.816Z,3.94
2023-03-12T11:42:59.212Z,3.95
2023-03-12T11:45:45.640Z,3.89
2023-03-12T11:48:23.421Z,3.80
2023-03-12T11:51:02.598Z,3.71
2023-03-12T11:53:36.677Z,3.64
2023-03-12T11:56:11.348Z,3.61
2023-03-12T11:58:48.504Z,3.58
2023-03-12T12:01:21.857Z,3.57
2023-03-12T12:04:20.283Z,3.61
2023-03-12T12:07:00.681Z,3.66
2023-03-12T12:10:11.739Z,3.70
2023-03-12T12:12:43.161Z,3.81
2023-03-12T12:15:22.554Z,3.90
2023-03-12T12:18:11.227Z,3.92
2023-03-12T12:20:44.687Z,3.91
2023-03-12T12:23:28.521Z,3.90
2023-03-12T12:26:13.510Z,3.95
2023-03-12T12:28:59.856Z,4.03
2023-03-12T12:31:32.687Z,4.15
2023-03-12T12:34:24.175Z,4.25
2023-03-12T12:37:18.954Z,4.31
2023-03-12T12:40:15.142Z,4.31
2023-03-12T12:42:58.447Z,4.33
2023-03-12T12:45:27.346Z,4.36
2023-03-12T12:48:06.530Z,4.34
2023-03-12T12:50:38.422Z,4.31
2023-03-12T12:53:23.401Z,4.31
2023-03-12T12:56:00.478Z,4.32
2023-03-12T12:58:55.118Z,4.32
2023-03-12T13:01:27.774Z,4.31
2023-03-12T13:04:06.908Z,4.27
2023-03-12T13:06:55.836Z,4.23
2023-03-12T13:09:35.780Z,4.21
2023-03-12T13:12:19.078Z,4.19
2023-03-12T13:14:48.187Z,4.16
2023-03-12T13:17:21.457Z,4.13
2023-03-12T13:20:01.734Z,4.08
2023-03-12T13:22:53.396Z,4.01
2023-03-12T13:25:45.743Z,3.96
2023-03-12T13:29:11.266Z,3.92
2023-03-12T13:31:44.023Z,3.90
2023-03-12T13:34:30.569Z,3.89
2023-03-12T13:37:02.010Z,3.94
2023-03-12T13:39:33.310Z,3.98
2023-03-12T13:42:22.707Z,3.99
2023-03-12T13:44:52.245Z,3.95
2023-03-12T13:47:37.563Z,3.87
2023-03-12T13:50:15.385Z,3.79
2023-03-12T13:52:58.274Z,3.74
2023-03-12T13:55:44.800Z,3.70
2023-03-12T13:58:28.604Z,3.72
2023-03-12T14:01:05.984Z,3.79
2023-03-12T14:03:41.970Z,3.82
2023-03-12T14:06:14.647Z,3.81
2023-03-12T14:09:00.967Z,3.79
2023-03-12T14:11:44.810Z,3.77
2023-03-12T14:14:32.241Z,3.71
2023-03-12T14:17:01.956Z,3.66
2023-03-12T14:19:48.213Z,3.63
2023-03-12T14:22:16.483Z,3.58
2023-03-12T14:24:49.482Z,3.55
2023-03-12T14:27:26.401Z,3.58
2023-03-12T14:30:14.030Z,3.59
2023-03-12T14:32:46.679Z,3.54
2023-03-12T14:35:27.079Z,3.49
2023-03-12T14:41:14.783Z,3.48
2023-03-12T14:43:46.691Z,3.49
2023-03-12T14:46:18.092Z,3.52
2023-03-12T14:48:53.489Z,3.55
2023-03-12T14:51:30.953Z,3.57
2023-03-12T14:54:02.479Z,3.57
2023-03-12T14:56:35.492Z,3.60
2023-03-12T14:59:24.996Z,3.60
2023-03-12T15:01:58.846Z,3.55
2023-03-12T15:04:27.107Z,3.47
2023-03-12T15:06:59.036Z,3.32
2023-03-12T15:09:29.408Z,3.02
2023-03-12T15:12:01.088Z,2.72
2023-03-12T15:14:32.707Z,2.54
2023-03-12T15:17:04.226Z,2.43
2023-03-12T15:19:36.197Z,2.32
2023-03-12T15:22:04.718Z,2.20
2023-03-12T15:24:38.333Z,2.07
2023-03-12T15:27:25.365Z,1.95
2023-03-12T15:30:01.141Z,1.84
2023-03-12T15:32:32.077Z,1.77
2023-03-12T15:35:01.245Z,1.72
2023-03-12T15:37:38.418Z,1.67
2023-03-12T15:40:26.259Z,1.64
2023-03-12T15:42:57.733Z,1.63
2023-03-12T15:45:39.106Z,1.64
2023-03-12T15:48:31.409Z,1.68
2023-03-12T15:50:59.729Z,1.76
2023-03-12T15:53:32.773Z,1.81
2023-03-12T15:56:20.975Z,1.84
2023-03-12T15:59:00.406Z,1.84
2023-03-12T16:01:28.935Z,1.84
2023-03-12T16:03:57.613Z,1.85
2023-03-12T16:06:28.057Z,1.87
2023-03-12T16:08:58.522Z,1.90
2023-03-12T16:11:29.078Z,1.92
2023-03-12T16:14:20.128Z,1.92
2023-03-12T16:16:52.503Z,1.91
2023-03-12T16:19:22.841Z,1.89
2023-03-12T16:21:51.007Z,1.88
2023-03-12T16:24:21.253Z,1.88
2023-03-12T16:26:53.487Z,1.90
2023-03-12T16:29:24.879Z,1.96
2023-03-12T16:31:54.974Z,2.02
2023-03-12T16:34:23.358Z,2.10
2023-03-12T16:36:51.779Z,2.17
2023-03-12T16:39:20.115Z,2.03
2023-03-12T16:41:48.654Z,1.68
2023-03-12T16:44:19.585Z,1.39
2023-03-12T16:46:49.114Z,1.21
2023-03-12T16:49:18.167Z,1.10
2023-03-12T16:51:46.346Z,1.04
2023-03-12T16:54:14.367Z,0.99
2023-03-12T16:56:44.373Z,0.93
2023-03-12T16:59:26.028Z,0.86
2023-03-12T17:01:54.642Z,0.78
2023-03-12T17:04:23.157Z,0.70
2023-03-12T17:06:51.536Z,0.63
2023-03-12T17:09:21.217Z,0.58
2023-03-12T17:11:52.476Z,0.56
2023-03-12T17:14:22.327Z,0.54
2023-03-12T17:16:52.258Z,0.54
2023-03-12T17:19:20.437Z,0.53
2023-03-12T17:21:48.974Z,0.53
2023-03-12T17:24:28.140Z,0.55
2023-03-12T17:26:58.180Z,0.58
2023-03-12T17:29:26.404Z,0.58
2023-03-12T17:31:54.981Z,0.58
2023-03-12T17:34:23.468Z,0.59
2023-03-12T17:36:56.531Z,0.60
2023-03-12T17:39:26.086Z,0.61
2023-03-12T17:41:54.276Z,0.62
2023-03-12T17:44:26.034Z,0.63
2023-03-12T17:46:59.758Z,0.63
2023-03-12T17:49:28.956Z,0.64
2023-03-12T17:51:57.798Z,0.63
2023-03-12T17:54:31.779Z,0.65
2023-03-12T17:57:00.004Z,0.66
2023-03-12T17:59:28.639Z,0.67
2023-03-12T18:01:56.783Z,0.67
2023-03-12T18:04:24.957Z,0.68
2023-03-12T18:06:54.138Z,0.69
2023-03-12T18:09:22.425Z,0.69
2023-03-12T18:11:58.330Z,0.68
2023-03-12T18:14:27.333Z,0.68
2023-03-12T18:17:00.948Z,0.69
2023-03-12T18:19:30.944Z,0.70
2023-03-12T18:22:05.469Z,0.69
2023-03-12T18:24:34.861Z,0.67
2023-03-12T18:27:18.825Z,0.67
2023-03-12T18:29:53.028Z,0.67
2023-03-12T18:32:24.915Z,0.68
2023-03-12T18:34:53.377Z,0.70
2023-03-12T18:40:09.432Z,0.70
2023-03-12T18:42:45.904Z,0.70
2023-03-12T18:45:17.780Z,0.71
2023-03-12T18:47:52.565Z,0.72
2023-03-12T18:50:34.137Z,0.71
2023-03-12T18:53:04.541Z,0.71
2023-03-12T18:55:33.888Z,0.72
2023-03-12T18:58:03.764Z,0.70
2023-03-12T19:00:38.054Z,0.70
2023-03-12T19:03:17.583Z,0.73
2023-03-12T19:05:58.701Z,0.78
2023-03-12T19:08:32.190Z,0.85
2023-03-12T19:11:05.577Z,0.89
2023-03-12T19:13:42.084Z,0.91
2023-03-12T19:16:21.949Z,0.92
2023-03-12T19:18:50.488Z,0.92
2023-03-12T19:21:20.241Z,0.93
2023-03-12T19:23:48.530Z,0.95
2023-03-12T19:26:16.736Z,0.96
2023-03-12T19:28:46.355Z,0.95
2023-03-12T19:31:15.582Z,0.94
2023-03-12T19:33:46.577Z,0.92
2023-03-12T19:36:17.140Z,0.92
2023-03-12T19:38:45.680Z,0.95
2023-03-12T19:41:14.837Z,1.00
2023-03-12T19:43:44.044Z,1.08
2023-03-12T19:46:19.991Z,1.17
2023-03-12T19:48:51.646Z,1.24
2023-03-12T19:51:19.718Z,1.32
2023-03-12T19:53:48.055Z,1.39
2023-03-12T19:56:18.546Z,1.44
2023-03-12T19:58:46.996Z,1.48
2023-03-12T20:01:15.670Z,1.51
2023-03-12T20:03:44.047Z,1.50
2023-03-12T20:06:12.812Z,1.51
2023-03-12T20:08:45.829Z,1.51
2023-03-12T20:11:21.673Z,1.50
2023-03-12T20:13:49.937Z,1.46
2023-03-12T20:16:18.559Z,1.37
2023-03-12T20:18:47.403Z,1.24
2023-03-12T20:21:15.448Z,1.13
2023-03-12T20:23:43.669Z,1.06
2023-03-12T20:26:11.966Z,0.99
2023-03-12T20:28:40.454Z,0.92
2023-03-12T20:31:12.933Z,0.87
2023-03-12T20:33:43.511Z,0.85
2023-03-12T20:36:12.321Z,0.87
2023-03-12T20:38:41.473Z,0.87
2023-03-12T20:41:13.433Z,0.90
2023-03-12T20:43:41.988Z,0.92
2023-03-12T20:46:10.095Z,0.94
2023-03-12T20:48:43.314Z,0.94
2023-03-12T20:51:11.620Z,0.96
2023-03-12T20:53:39.562Z,0.96
2023-03-12T20:56:08.636Z,0.96
2023-03-12T20:58:37.045Z,0.94
2023-03-12T21:01:06.114Z,0.91
2023-03-12T21:03:34.083Z,0.87
2023-03-12T21:06:02.106Z,0.83
2023-03-12T21:08:30.187Z,0.81
2023-03-12T21:10:58.203Z,0.79
2023-03-12T21:13:26.904Z,0.79
2023-03-12T21:15:54.796Z,0.79
2023-03-12T21:18:24.049Z,0.80
2023-03-12T21:20:55.089Z,0.81
2023-03-12T21:23:23.443Z,0.82
2023-03-12T21:25:56.719Z,0.83
2023-03-12T21:28:24.753Z,0.85
2023-03-12T21:30:53.387Z,0.88
2023-03-12T21:33:22.523Z,0.90
2023-03-12T21:35:51.062Z,0.93
2023-03-12T21:38:18.992Z,0.95
2023-03-12T21:40:48.217Z,0.97
2023-03-12T21:43:17.084Z,0.97
2023-03-12T21:45:47.557Z,0.97
2023-03-12T21:48:15.823Z,0.95
2023-03-12T21:50:45.335Z,0.92
2023-03-12T21:53:23.350Z,0.88
2023-03-12T21:55:55.964Z,0.84
2023-03-12T21:58:24.048Z,0.81
2023-03-12T22:00:52.180Z,0.79
2023-03-12T22:03:20.231Z,0.76
2023-03-12T22:05:50.427Z,0.73
2023-03-12T22:08:20.776Z,0.69
2023-03-12T22:10:49.315Z,0.67
2023-03-12T22:13:17.286Z,0.64
2023-03-12T22:16:09.217Z,0.62
2023-03-12T22:18:39.192Z,0.59
2023-03-12T22:21:10.057Z,0.56
2023-03-12T22:23:38.350Z,0.54
2023-03-12T22:26:07.086Z,0.51
2023-03-12T22:28:37.302Z,0.48
2023-03-12T22:31:06.617Z,0.46
2023-03-12T22:33:38.708Z,0.43
2023-03-12T22:36:07.381Z,0.41
2023-03-12T22:38:36.740Z,0.39
2023-03-12T22:41:31.889Z,0.37
2023-03-12T22:44:07.786Z,0.35
2023-03-12T22:46:36.055Z,0.33
2023-03-12T22:49:04.130Z,0.31
2023-03-12T22:51:32.271Z,0.29
2023-03-12T22:54:00.670Z,0.27
2023-03-12T22:56:28.958Z,0.25
2023-03-12T22:58:57.023Z,0.22
2023-03-12T23:01:25.608Z,0.20
2023-03-12T23:03:57.068Z,0.18
2023-03-12T23:06:26.115Z,0.15
2023-03-12T23:08:57.340Z,0.13
2023-03-12T23:11:25.836Z,0.12
2023-03-12T23:13:54.205Z,0.10
2023-03-12T23:16:23.361Z,0.08
2023-03-12T23:18:54.328Z,0.06
2023-03-12T23:21:22.921Z,0.04
2023-03-12T23:23:50.898Z,0.03
2023-03-12T23:26:26.894Z,0.02
2023-03-12T23:28:55.456Z,-0.01
2023-03-12T23:31:24.030Z,-0.02
2023-03-12T23:33:52.353Z,-0.03
2023-03-12T23:36:24.503Z,-0.03
2023-03-12T23:38:52.867Z,-0.04
2023-03-12T23:41:21.796Z,-0.04
2023-03-12T23:43:51.418Z,-0.05
2023-03-12T23:46:19.710Z,-0.06
2023-03-12T23:48:51.951Z,-0.08
2023-03-12T23:51:22.280Z,-0.09
2023-03-12T23:53:50.982Z,-0.09
2023-03-12T23:56:19.866Z,-0.10
2023-03-12T23:58:48.199Z,-0.11
